sensor_id;sensor_type;location;lat;lon;timestamp;P1;durP1;ratioP1;P2;durP2;ratioP2
75356;SDS011;63946;51.986;5.930;2024-03-07T05:46:51;37.55;;;19.75;;
75356;SDS011;63946;51.986;5.930;2024-03-07T05:49:20;40.20;;;21.73;;
75356;SDS011;63946;51.986;5.930;2024-03-07T05:51:49;38.20;;;20.60;;
75356;SDS011;63946;51.986;5.930;2024-03-07T05:54:18;40.58;;;22.23;;
75356;SDS011;63946;51.986;5.930;2024-03-07T05:56:46;38.03;;;20.92;;
75356;SDS011;63946;51.986;5.930;2024-03-07T05:59:16;43.72;;;22.63;;
75356;SDS011;63946;51.986;5.930;2024-03-07T06:01:46;39.28;;;21.83;;
75356;SDS011;63946;51.986;5.930;2024-03-07T06:04:16;36.05;;;20.58;;
75356;SDS011;63946;51.986;5.930;2024-03-07T06:06:45;39.58;;;21.35;;
75356;SDS011;63946;51.986;5.930;2024-03-07T06:09:14;43.08;;;21.42;;
75356;SDS011;63946;51.986;5.930;2024-03-07T06:11:47;36.20;;;19.30;;
75356;SDS011;63946;51.986;5.930;2024-03-07T06:14:17;37.80;;;19.23;;
75356;SDS011;63946;51.986;5.930;2024-03-07T06:16:46;33.25;;;18.70;;
75356;SDS011;63946;51.986;5.930;2024-03-07T06:19:14;35.30;;;20.55;;
75356;SDS011;63946;51.986;5.930;2024-03-07T06:21:43;34.83;;;19.65;;
75356;SDS011;63946;51.986;5.930;2024-03-07T06:24:12;35.40;;;19.92;;
75356;SDS011;63946;51.986;5.930;2024-03-07T06:26:43;37.42;;;20.27;;
75356;SDS011;63946;51.986;5.930;2024-03-07T06:29:25;38.83;;;20.80;;
75356;SDS011;63946;51.986;5.930;2024-03-07T06:31:55;34.38;;;19.80;;
75356;SDS011;63946;51.986;5.930;2024-03-07T06:34:24;38.83;;;19.52;;
75356;SDS011;63946;51.986;5.930;2024-03-07T06:36:54;36.13;;;20.20;;
75356;SDS011;63946;51.986;5.930;2024-03-07T06:39:23;38.47;;;20.85;;
75356;SDS011;63946;51.986;5.930;2024-03-07T06:41:52;36.42;;;18.90;;
75356;SDS011;63946;51.986;5.930;2024-03-07T06:44:21;36.58;;;19.70;;
75356;SDS011;63946;51.986;5.930;2024-03-07T06:46:51;37.08;;;20.38;;
75356;SDS011;63946;51.986;5.930;2024-03-07T06:49:22;35.60;;;19.88;;
75356;SDS011;63946;51.986;5.930;2024-03-07T06:51:51;30.80;;;17.40;;
75356;SDS011;63946;51.986;5.930;2024-03-07T06:54:20;35.80;;;19.70;;
75356;SDS011;63946;51.986;5.930;2024-03-07T06:56:52;34.05;;;18.67;;
75356;SDS011;63946;51.986;5.930;2024-03-07T06:59:20;34.42;;;17.85;;
75356;SDS011;63946;51.986;5.930;2024-03-07T07:01:49;31.48;;;19.20;;
75356;SDS011;63946;51.986;5.930;2024-03-07T07:04:20;36.00;;;19.60;;
75356;SDS011;63946;51.986;5.930;2024-03-07T07:06:51;31.80;;;16.58;;
75356;SDS011;63946;51.986;5.930;2024-03-07T07:09:20;31.77;;;17.60;;
75356;SDS011;63946;51.986;5.930;2024-03-07T07:11:49;33.65;;;18.63;;
75356;SDS011;63946;51.986;5.930;2024-03-07T07:14:18;30.92;;;17.58;;
75356;SDS011;63946;51.986;5.930;2024-03-07T07:16:47;34.28;;;19.83;;
75356;SDS011;63946;51.986;5.930;2024-03-07T07:19:16;31.33;;;17.48;;
75356;SDS011;63946;51.986;5.930;2024-03-07T07:21:50;36.17;;;18.88;;
75356;SDS011;63946;51.986;5.930;2024-03-07T07:24:20;32.38;;;18.23;;
75356;SDS011;63946;51.986;5.930;2024-03-07T07:26:50;30.40;;;17.67;;
75356;SDS011;63946;51.986;5.930;2024-03-07T07:29:19;30.20;;;17.65;;
75356;SDS011;63946;51.986;5.930;2024-03-07T07:31:49;31.25;;;15.48;;
75356;SDS011;63946;51.986;5.930;2024-03-07T07:34:21;31.60;;;17.77;;
75356;SDS011;63946;51.986;5.930;2024-03-07T07:36:51;33.42;;;18.55;;
75356;SDS011;63946;51.986;5.930;2024-03-07T07:39:21;29.58;;;16.60;;
75356;SDS011;63946;51.986;5.930;2024-03-07T07:41:50;30.38;;;17.65;;
75356;SDS011;63946;51.986;5.930;2024-03-07T07:44:18;28.52;;;16.10;;
75356;SDS011;63946;51.986;5.930;2024-03-07T07:46:48;35.03;;;17.45;;
75356;SDS011;63946;51.986;5.930;2024-03-07T07:49:17;30.48;;;17.00;;
75356;SDS011;63946;51.986;5.930;2024-03-07T07:51:46;26.15;;;15.63;;
75356;SDS011;63946;51.986;5.930;2024-03-07T07:54:16;28.35;;;16.55;;
75356;SDS011;63946;51.986;5.930;2024-03-07T07:56:44;25.50;;;15.32;;
75356;SDS011;63946;51.986;5.930;2024-03-07T07:59:13;28.95;;;16.02;;
75356;SDS011;63946;51.986;5.930;2024-03-07T08:01:42;28.58;;;16.10;;
75356;SDS011;63946;51.986;5.930;2024-03-07T08:04:20;28.77;;;17.02;;
75356;SDS011;63946;51.986;5.930;2024-03-07T08:06:49;23.63;;;14.35;;
75356;SDS011;63946;51.986;5.930;2024-03-07T08:09:18;27.17;;;15.82;;
75356;SDS011;63946;51.986;5.930;2024-03-07T08:11:47;27.38;;;17.02;;
75356;SDS011;63946;51.986;5.930;2024-03-07T08:14:18;25.80;;;15.70;;
75356;SDS011;63946;51.986;5.930;2024-03-07T08:16:50;24.05;;;14.20;;
75356;SDS011;63946;51.986;5.930;2024-03-07T08:19:20;28.02;;;14.55;;
75356;SDS011;63946;51.986;5.930;2024-03-07T08:21:49;23.52;;;14.45;;
75356;SDS011;63946;51.986;5.930;2024-03-07T08:24:18;25.63;;;15.43;;
75356;SDS011;63946;51.986;5.930;2024-03-07T08:26:47;23.85;;;13.82;;
75356;SDS011;63946;51.986;5.930;2024-03-07T08:29:16;23.15;;;14.05;;
75356;SDS011;63946;51.986;5.930;2024-03-07T08:31:44;21.92;;;12.27;;
75356;SDS011;63946;51.986;5.930;2024-03-07T08:34:13;23.33;;;14.23;;
75356;SDS011;63946;51.986;5.930;2024-03-07T08:36:42;20.52;;;13.48;;
75356;SDS011;63946;51.986;5.930;2024-03-07T08:39:12;22.02;;;13.73;;
75356;SDS011;63946;51.986;5.930;2024-03-07T08:41:41;23.80;;;13.85;;
75356;SDS011;63946;51.986;5.930;2024-03-07T08:44:12;22.25;;;14.15;;
75356;SDS011;63946;51.986;5.930;2024-03-07T08:46:41;20.85;;;13.93;;
75356;SDS011;63946;51.986;5.930;2024-03-07T08:49:10;22.92;;;13.82;;
75356;SDS011;63946;51.986;5.930;2024-03-07T08:51:42;23.40;;;14.27;;
75356;SDS011;63946;51.986;5.930;2024-03-07T08:54:11;21.95;;;13.75;;
75356;SDS011;63946;51.986;5.930;2024-03-07T08:56:40;23.23;;;14.38;;
75356;SDS011;63946;51.986;5.930;2024-03-07T08:59:10;23.65;;;14.23;;
75356;SDS011;63946;51.986;5.930;2024-03-07T09:01:42;21.15;;;13.35;;
75356;SDS011;63946;51.986;5.930;2024-03-07T09:04:11;21.75;;;12.85;;
75356;SDS011;63946;51.986;5.930;2024-03-07T09:06:43;25.35;;;14.63;;
75356;SDS011;63946;51.986;5.930;2024-03-07T09:09:12;22.30;;;13.43;;
75356;SDS011;63946;51.986;5.930;2024-03-07T09:11:45;21.02;;;12.85;;
75356;SDS011;63946;51.986;5.930;2024-03-07T09:14:14;22.42;;;14.18;;
75356;SDS011;63946;51.986;5.930;2024-03-07T09:16:43;26.20;;;15.10;;
75356;SDS011;63946;51.986;5.930;2024-03-07T09:21:46;21.15;;;11.90;;
75356;SDS011;63946;51.986;5.930;2024-03-07T09:24:15;20.85;;;12.93;;
75356;SDS011;63946;51.986;5.930;2024-03-07T09:26:47;22.15;;;13.63;;
75356;SDS011;63946;51.986;5.930;2024-03-07T09:29:17;20.40;;;13.40;;
75356;SDS011;63946;51.986;5.930;2024-03-07T09:31:51;23.60;;;13.95;;
75356;SDS011;63946;51.986;5.930;2024-03-07T09:34:20;21.77;;;13.25;;
75356;SDS011;63946;51.986;5.930;2024-03-07T09:36:49;22.48;;;13.32;;
75356;SDS011;63946;51.986;5.930;2024-03-07T09:39:19;23.40;;;13.35;;
75356;SDS011;63946;51.986;5.930;2024-03-07T09:41:52;18.70;;;12.68;;
75356;SDS011;63946;51.986;5.930;2024-03-07T09:44:22;21.83;;;13.50;;
75356;SDS011;63946;51.986;5.930;2024-03-07T09:46:54;20.50;;;12.23;;
75356;SDS011;63946;51.986;5.930;2024-03-07T09:49:24;20.15;;;12.18;;
75356;SDS011;63946;51.986;5.930;2024-03-07T09:51:57;18.88;;;12.23;;
75356;SDS011;63946;51.986;5.930;2024-03-07T09:54:27;21.13;;;13.25;;
75356;SDS011;63946;51.986;5.930;2024-03-07T09:56:57;19.80;;;12.88;;
75356;SDS011;63946;51.986;5.930;2024-03-07T09:59:28;21.15;;;12.40;;
75356;SDS011;63946;51.986;5.930;2024-03-07T10:02:01;21.17;;;13.10;;
75356;SDS011;63946;51.986;5.930;2024-03-07T10:04:43;21.67;;;13.02;;
75356;SDS011;63946;51.986;5.930;2024-03-07T10:07:17;20.88;;;12.30;;
75356;SDS011;63946;51.986;5.930;2024-03-07T10:09:46;20.65;;;12.98;;
75356;SDS011;63946;51.986;5.930;2024-03-07T10:12:17;21.50;;;13.32;;
75356;SDS011;63946;51.986;5.930;2024-03-07T10:14:49;20.48;;;12.80;;
75356;SDS011;63946;51.986;5.930;2024-03-07T10:17:25;20.58;;;12.10;;
75356;SDS011;63946;51.986;5.930;2024-03-07T10:19:55;22.10;;;13.10;;
75356;SDS011;63946;51.986;5.930;2024-03-07T10:22:26;21.63;;;12.32;;
75356;SDS011;63946;51.986;5.930;2024-03-07T10:24:56;20.98;;;13.52;;
75356;SDS011;63946;51.986;5.930;2024-03-07T10:27:26;23.27;;;13.40;;
75356;SDS011;63946;51.986;5.930;2024-03-07T10:29:57;22.67;;;13.55;;
75356;SDS011;63946;51.986;5.930;2024-03-07T10:32:26;26.38;;;13.93;;
75356;SDS011;63946;51.986;5.930;2024-03-07T10:34:55;22.27;;;12.45;;
75356;SDS011;63946;51.986;5.930;2024-03-07T10:37:24;22.92;;;12.95;;
75356;SDS011;63946;51.986;5.930;2024-03-07T10:39:53;20.45;;;12.73;;
75356;SDS011;63946;51.986;5.930;2024-03-07T10:42:22;22.35;;;13.10;;
75356;SDS011;63946;51.986;5.930;2024-03-07T10:45:00;20.70;;;13.07;;
75356;SDS011;63946;51.986;5.930;2024-03-07T10:47:36;19.63;;;12.65;;
75356;SDS011;63946;51.986;5.930;2024-03-07T10:50:16;22.60;;;13.35;;
75356;SDS011;63946;51.986;5.930;2024-03-07T10:52:58;21.95;;;13.32;;
75356;SDS011;63946;51.986;5.930;2024-03-07T10:55:38;24.45;;;13.13;;
75356;SDS011;63946;51.986;5.930;2024-03-07T11:00:49;21.60;;;12.85;;
75356;SDS011;63946;51.986;5.930;2024-03-07T11:03:25;22.55;;;12.52;;
75356;SDS011;63946;51.986;5.930;2024-03-07T11:05:54;20.98;;;11.98;;
75356;SDS011;63946;51.986;5.930;2024-03-07T11:08:24;21.80;;;12.68;;
75356;SDS011;63946;51.986;5.930;2024-03-07T11:10:54;20.05;;;12.88;;
75356;SDS011;63946;51.986;5.930;2024-03-07T11:13:22;22.17;;;13.32;;
75356;SDS011;63946;51.986;5.930;2024-03-07T11:15:52;21.55;;;12.77;;
75356;SDS011;63946;51.986;5.930;2024-03-07T11:18:24;19.45;;;12.13;;
75356;SDS011;63946;51.986;5.930;2024-03-07T11:20:53;21.88;;;12.95;;
75356;SDS011;63946;51.986;5.930;2024-03-07T11:23:30;19.70;;;12.50;;
75356;SDS011;63946;51.986;5.930;2024-03-07T11:26:04;21.58;;;12.52;;
75356;SDS011;63946;51.986;5.930;2024-03-07T11:31:08;20.75;;;11.55;;
75356;SDS011;63946;51.986;5.930;2024-03-07T11:36:45;21.17;;;12.18;;
75356;SDS011;63946;51.986;5.930;2024-03-07T11:42:19;23.77;;;12.80;;
75356;SDS011;63946;51.986;5.930;2024-03-07T11:44:51;19.85;;;12.57;;
75356;SDS011;63946;51.986;5.930;2024-03-07T11:47:22;21.02;;;11.98;;
75356;SDS011;63946;51.986;5.930;2024-03-07T11:49:54;22.35;;;12.75;;
75356;SDS011;63946;51.986;5.930;2024-03-07T11:52:26;21.25;;;12.38;;
75356;SDS011;63946;51.986;5.930;2024-03-07T11:54:58;23.42;;;12.27;;
75356;SDS011;63946;51.986;5.930;2024-03-07T11:57:31;23.13;;;12.82;;
75356;SDS011;63946;51.986;5.930;2024-03-07T12:00:01;18.33;;;12.05;;
75356;SDS011;63946;51.986;5.930;2024-03-07T12:02:38;24.33;;;13.10;;
75356;SDS011;63946;51.986;5.930;2024-03-07T12:07:41;20.23;;;11.70;;
75356;SDS011;63946;51.986;5.930;2024-03-07T12:10:10;18.98;;;11.63;;
75356;SDS011;63946;51.986;5.930;2024-03-07T12:12:39;21.30;;;11.85;;
75356;SDS011;63946;51.986;5.930;2024-03-07T12:15:09;21.13;;;11.85;;
75356;SDS011;63946;51.986;5.930;2024-03-07T12:17:45;18.27;;;10.85;;
75356;SDS011;63946;51.986;5.930;2024-03-07T12:20:15;19.23;;;12.32;;
75356;SDS011;63946;51.986;5.930;2024-03-07T12:22:56;19.33;;;12.00;;
75356;SDS011;63946;51.986;5.930;2024-03-07T12:25:28;20.42;;;11.52;;
75356;SDS011;63946;51.986;5.930;2024-03-07T12:28:11;18.95;;;10.90;;
75356;SDS011;63946;51.986;5.930;2024-03-07T12:33:15;17.17;;;11.95;;
75356;SDS011;63946;51.986;5.930;2024-03-07T12:35:54;20.25;;;12.45;;
75356;SDS011;63946;51.986;5.930;2024-03-07T12:38:31;16.55;;;10.23;;
75356;SDS011;63946;51.986;5.930;2024-03-07T12:41:05;20.58;;;12.02;;
75356;SDS011;63946;51.986;5.930;2024-03-07T12:43:42;18.05;;;12.00;;
75356;SDS011;63946;51.986;5.930;2024-03-07T12:46:11;18.60;;;12.43;;
75356;SDS011;63946;51.986;5.930;2024-03-07T12:48:41;23.35;;;12.45;;
75356;SDS011;63946;51.986;5.930;2024-03-07T12:51:10;20.95;;;13.07;;
75356;SDS011;63946;51.986;5.930;2024-03-07T12:53:42;20.63;;;13.85;;
75356;SDS011;63946;51.986;5.930;2024-03-07T12:56:11;20.33;;;13.30;;
75356;SDS011;63946;51.986;5.930;2024-03-07T12:58:44;20.08;;;13.57;;
75356;SDS011;63946;51.986;5.930;2024-03-07T13:01:15;20.42;;;12.77;;
75356;SDS011;63946;51.986;5.930;2024-03-07T13:03:44;19.85;;;12.82;;
75356;SDS011;63946;51.986;5.930;2024-03-07T13:06:15;21.25;;;13.48;;
75356;SDS011;63946;51.986;5.930;2024-03-07T13:08:45;21.55;;;13.27;;
75356;SDS011;63946;51.986;5.930;2024-03-07T13:11:14;21.83;;;12.90;;
75356;SDS011;63946;51.986;5.930;2024-03-07T13:13:43;20.25;;;12.60;;
75356;SDS011;63946;51.986;5.930;2024-03-07T13:16:13;18.42;;;12.48;;
75356;SDS011;63946;51.986;5.930;2024-03-07T13:18:41;21.45;;;13.82;;
75356;SDS011;63946;51.986;5.930;2024-03-07T13:21:14;22.83;;;13.60;;
75356;SDS011;63946;51.986;5.930;2024-03-07T13:23:45;20.02;;;13.02;;
75356;SDS011;63946;51.986;5.930;2024-03-07T13:26:22;20.70;;;13.82;;
75356;SDS011;63946;51.986;5.930;2024-03-07T13:28:55;19.80;;;13.82;;
75356;SDS011;63946;51.986;5.930;2024-03-07T13:31:26;20.13;;;13.02;;
75356;SDS011;63946;51.986;5.930;2024-03-07T13:33:55;18.67;;;11.68;;
75356;SDS011;63946;51.986;5.930;2024-03-07T13:36:27;20.85;;;12.65;;
75356;SDS011;63946;51.986;5.930;2024-03-07T13:38:58;21.92;;;12.77;;
75356;SDS011;63946;51.986;5.930;2024-03-07T13:41:27;21.63;;;13.35;;
75356;SDS011;63946;51.986;5.930;2024-03-07T13:43:56;21.85;;;12.68;;
75356;SDS011;63946;51.986;5.930;2024-03-07T13:46:25;20.05;;;12.20;;
75356;SDS011;63946;51.986;5.930;2024-03-07T13:48:54;19.80;;;12.32;;
75356;SDS011;63946;51.986;5.930;2024-03-07T13:51:35;19.77;;;13.15;;
75356;SDS011;63946;51.986;5.930;2024-03-07T13:54:07;23.55;;;13.73;;
75356;SDS011;63946;51.986;5.930;2024-03-07T13:56:55;23.90;;;13.48;;
75356;SDS011;63946;51.986;5.930;2024-03-07T13:59:40;20.45;;;14.18;;
75356;SDS011;63946;51.986;5.930;2024-03-07T14:17:52;20.55;;;12.07;;
75356;SDS011;63946;51.986;5.930;2024-03-07T14:32:25;16.38;;;11.63;;
75356;SDS011;63946;51.986;5.930;2024-03-07T14:37:55;15.80;;;11.23;;
75356;SDS011;63946;51.986;5.930;2024-03-07T14:40:34;18.50;;;12.00;;
75356;SDS011;63946;51.986;5.930;2024-03-07T14:43:03;18.25;;;11.18;;
75356;SDS011;63946;51.986;5.930;2024-03-07T14:45:36;19.13;;;11.60;;
75356;SDS011;63946;51.986;5.930;2024-03-07T14:48:11;15.70;;;10.85;;
75356;SDS011;63946;51.986;5.930;2024-03-07T14:50:41;18.05;;;11.63;;
75356;SDS011;63946;51.986;5.930;2024-03-07T14:53:13;17.48;;;11.27;;
75356;SDS011;63946;51.986;5.930;2024-03-07T14:55:45;17.02;;;11.23;;
75356;SDS011;63946;51.986;5.930;2024-03-07T14:58:17;17.02;;;11.25;;
75356;SDS011;63946;51.986;5.930;2024-03-07T15:00:46;16.15;;;11.35;;
75356;SDS011;63946;51.986;5.930;2024-03-07T15:03:16;18.67;;;11.98;;
75356;SDS011;63946;51.986;5.930;2024-03-07T15:05:45;18.17;;;11.80;;
75356;SDS011;63946;51.986;5.930;2024-03-07T15:08:15;15.05;;;11.27;;
75356;SDS011;63946;51.986;5.930;2024-03-07T15:10:45;16.48;;;11.00;;
75356;SDS011;63946;51.986;5.930;2024-03-07T15:13:20;16.80;;;11.32;;
75356;SDS011;63946;51.986;5.930;2024-03-07T15:15:48;20.63;;;12.18;;
75356;SDS011;63946;51.986;5.930;2024-03-07T15:18:17;19.17;;;11.48;;
75356;SDS011;63946;51.986;5.930;2024-03-07T15:20:47;19.55;;;12.05;;
75356;SDS011;63946;51.986;5.930;2024-03-07T15:23:15;16.95;;;11.07;;
75356;SDS011;63946;51.986;5.930;2024-03-07T15:25:44;18.42;;;12.18;;
75356;SDS011;63946;51.986;5.930;2024-03-07T15:28:13;20.17;;;13.32;;
75356;SDS011;63946;51.986;5.930;2024-03-07T15:30:42;18.40;;;12.27;;
75356;SDS011;63946;51.986;5.930;2024-03-07T15:33:11;21.25;;;13.00;;
75356;SDS011;63946;51.986;5.930;2024-03-07T15:35:40;22.58;;;12.60;;
75356;SDS011;63946;51.986;5.930;2024-03-07T15:38:09;18.90;;;11.85;;
75356;SDS011;63946;51.986;5.930;2024-03-07T15:40:40;20.02;;;12.40;;
75356;SDS011;63946;51.986;5.930;2024-03-07T15:43:11;18.52;;;11.73;;
75356;SDS011;63946;51.986;5.930;2024-03-07T15:45:40;21.05;;;12.63;;
75356;SDS011;63946;51.986;5.930;2024-03-07T15:48:09;22.52;;;12.52;;
75356;SDS011;63946;51.986;5.930;2024-03-07T15:50:38;16.77;;;11.38;;
75356;SDS011;63946;51.986;5.930;2024-03-07T15:53:12;19.08;;;11.25;;
75356;SDS011;63946;51.986;5.930;2024-03-07T15:55:41;18.58;;;11.88;;
75356;SDS011;63946;51.986;5.930;2024-03-07T15:58:09;19.67;;;11.65;;
75356;SDS011;63946;51.986;5.930;2024-03-07T16:00:43;19.10;;;11.43;;
75356;SDS011;63946;51.986;5.930;2024-03-07T16:03:12;20.23;;;10.75;;
75356;SDS011;63946;51.986;5.930;2024-03-07T16:05:42;19.10;;;11.88;;
75356;SDS011;63946;51.986;5.930;2024-03-07T16:08:13;16.90;;;10.65;;
75356;SDS011;63946;51.986;5.930;2024-03-07T16:10:43;18.48;;;10.18;;
75356;SDS011;63946;51.986;5.930;2024-03-07T16:13:13;19.70;;;11.30;;
75356;SDS011;63946;51.986;5.930;2024-03-07T16:15:43;18.38;;;12.15;;
75356;SDS011;63946;51.986;5.930;2024-03-07T16:18:20;17.80;;;11.68;;
75356;SDS011;63946;51.986;5.930;2024-03-07T16:20:51;23.30;;;12.18;;
75356;SDS011;63946;51.986;5.930;2024-03-07T16:23:24;21.23;;;12.02;;
75356;SDS011;63946;51.986;5.930;2024-03-07T16:25:53;19.98;;;12.23;;
75356;SDS011;63946;51.986;5.930;2024-03-07T16:28:24;21.05;;;13.07;;
75356;SDS011;63946;51.986;5.930;2024-03-07T16:30:53;19.27;;;10.98;;
75356;SDS011;63946;51.986;5.930;2024-03-07T16:33:23;17.90;;;10.88;;
75356;SDS011;63946;51.986;5.930;2024-03-07T16:35:53;17.65;;;10.55;;
75356;SDS011;63946;51.986;5.930;2024-03-07T16:38:23;24.50;;;13.30;;
75356;SDS011;63946;51.986;5.930;2024-03-07T16:40:53;22.92;;;13.23;;
75356;SDS011;63946;51.986;5.930;2024-03-07T16:43:25;19.88;;;12.43;;
75356;SDS011;63946;51.986;5.930;2024-03-07T16:45:53;20.15;;;12.27;;
75356;SDS011;63946;51.986;5.930;2024-03-07T16:48:22;22.10;;;13.20;;
75356;SDS011;63946;51.986;5.930;2024-03-07T16:50:51;21.33;;;12.93;;
75356;SDS011;63946;51.986;5.930;2024-03-07T16:53:20;23.73;;;12.52;;
75356;SDS011;63946;51.986;5.930;2024-03-07T16:55:52;25.73;;;13.50;;
75356;SDS011;63946;51.986;5.930;2024-03-07T16:58:22;23.38;;;12.25;;
75356;SDS011;63946;51.986;5.930;2024-03-07T17:00:50;22.00;;;13.10;;
75356;SDS011;63946;51.986;5.930;2024-03-07T17:03:21;21.50;;;11.98;;
75356;SDS011;63946;51.986;5.930;2024-03-07T17:05:50;23.60;;;12.70;;
75356;SDS011;63946;51.986;5.930;2024-03-07T17:08:19;22.38;;;12.93;;
75356;SDS011;63946;51.986;5.930;2024-03-07T17:10:50;20.58;;;11.90;;
75356;SDS011;63946;51.986;5.930;2024-03-07T17:13:19;22.20;;;12.95;;
75356;SDS011;63946;51.986;5.930;2024-03-07T17:15:48;22.05;;;12.20;;
75356;SDS011;63946;51.986;5.930;2024-03-07T17:18:22;22.60;;;11.73;;
75356;SDS011;63946;51.986;5.930;2024-03-07T17:20:51;22.58;;;12.77;;
75356;SDS011;63946;51.986;5.930;2024-03-07T17:23:20;22.67;;;12.45;;
75356;SDS011;63946;51.986;5.930;2024-03-07T17:25:54;19.48;;;11.95;;
75356;SDS011;63946;51.986;5.930;2024-03-07T17:28:24;23.95;;;12.73;;
75356;SDS011;63946;51.986;5.930;2024-03-07T17:30:55;21.45;;;11.93;;
75356;SDS011;63946;51.986;5.930;2024-03-07T17:33:24;24.05;;;13.20;;
75356;SDS011;63946;51.986;5.930;2024-03-07T17:35:53;24.48;;;12.70;;
75356;SDS011;63946;51.986;5.930;2024-03-07T17:38:22;23.70;;;12.93;;
75356;SDS011;63946;51.986;5.930;2024-03-07T17:40:52;23.52;;;13.38;;
75356;SDS011;63946;51.986;5.930;2024-03-07T17:43:22;27.38;;;12.98;;
75356;SDS011;63946;51.986;5.930;2024-03-07T17:46:03;24.02;;;12.52;;
75356;SDS011;63946;51.986;5.930;2024-03-07T17:48:33;21.20;;;11.85;;
75356;SDS011;63946;51.986;5.930;2024-03-07T17:51:02;25.67;;;13.23;;
75356;SDS011;63946;51.986;5.930;2024-03-07T17:53:38;23.25;;;12.35;;
75356;SDS011;63946;51.986;5.930;2024-03-07T17:56:07;26.70;;;14.15;;
75356;SDS011;63946;51.986;5.930;2024-03-07T17:58:36;27.52;;;13.82;;
75356;SDS011;63946;51.986;5.930;2024-03-07T18:01:05;27.30;;;14.43;;
75356;SDS011;63946;51.986;5.930;2024-03-07T18:03:40;28.67;;;14.05;;
75356;SDS011;63946;51.986;5.930;2024-03-07T18:06:09;27.13;;;12.70;;
75356;SDS011;63946;51.986;5.930;2024-03-07T18:08:39;27.50;;;13.35;;
75356;SDS011;63946;51.986;5.930;2024-03-07T18:11:08;28.35;;;14.38;;
75356;SDS011;63946;51.986;5.930;2024-03-07T18:13:39;28.95;;;14.85;;
75356;SDS011;63946;51.986;5.930;2024-03-07T18:16:08;30.98;;;14.77;;
75356;SDS011;63946;51.986;5.930;2024-03-07T18:18:42;30.85;;;14.27;;
75356;SDS011;63946;51.986;5.930;2024-03-07T18:21:14;29.05;;;13.57;;
75356;SDS011;63946;51.986;5.930;2024-03-07T18:23:46;27.05;;;13.68;;
75356;SDS011;63946;51.986;5.930;2024-03-07T18:28:48;29.33;;;13.98;;
75356;SDS011;63946;51.986;5.930;2024-03-07T18:31:18;31.08;;;14.75;;
75356;SDS011;63946;51.986;5.930;2024-03-07T18:33:57;29.90;;;15.10;;
75356;SDS011;63946;51.986;5.930;2024-03-07T18:36:31;28.25;;;13.95;;
75356;SDS011;63946;51.986;5.930;2024-03-07T18:39:01;22.45;;;12.45;;
75356;SDS011;63946;51.986;5.930;2024-03-07T18:41:41;32.22;;;14.75;;
75356;SDS011;63946;51.986;5.930;2024-03-07T18:46:45;33.17;;;15.18;;
75356;SDS011;63946;51.986;5.930;2024-03-07T18:49:16;32.05;;;14.15;;
75356;SDS011;63946;51.986;5.930;2024-03-07T18:51:46;29.67;;;14.95;;
75356;SDS011;63946;51.986;5.930;2024-03-07T18:54:20;35.30;;;15.48;;
75356;SDS011;63946;51.986;5.930;2024-03-07T18:56:50;34.05;;;16.48;;
75356;SDS011;63946;51.986;5.930;2024-03-07T18:59:19;30.95;;;14.35;;
75356;SDS011;63946;51.986;5.930;2024-03-07T19:01:48;29.50;;;14.43;;
75356;SDS011;63946;51.986;5.930;2024-03-07T19:04:18;29.25;;;14.68;;
75356;SDS011;63946;51.986;5.930;2024-03-07T19:06:47;24.90;;;13.02;;
75356;SDS011;63946;51.986;5.930;2024-03-07T19:09:23;27.42;;;14.70;;
75356;SDS011;63946;51.986;5.930;2024-03-07T19:11:57;30.08;;;14.73;;
75356;SDS011;63946;51.986;5.930;2024-03-07T19:14:26;28.60;;;12.55;;
75356;SDS011;63946;51.986;5.930;2024-03-07T19:16:55;29.02;;;14.23;;
75356;SDS011;63946;51.986;5.930;2024-03-07T19:19:36;30.95;;;15.45;;
75356;SDS011;63946;51.986;5.930;2024-03-07T19:22:05;28.98;;;14.02;;
75356;SDS011;63946;51.986;5.930;2024-03-07T19:24:35;33.88;;;16.65;;
75356;SDS011;63946;51.986;5.930;2024-03-07T19:27:05;29.20;;;14.60;;
75356;SDS011;63946;51.986;5.930;2024-03-07T19:29:37;32.63;;;14.85;;
75356;SDS011;63946;51.986;5.930;2024-03-07T19:32:07;32.88;;;14.48;;
75356;SDS011;63946;51.986;5.930;2024-03-07T19:34:36;27.38;;;12.70;;
75356;SDS011;63946;51.986;5.930;2024-03-07T19:37:06;32.70;;;15.20;;
75356;SDS011;63946;51.986;5.930;2024-03-07T19:39:41;28.13;;;13.70;;
75356;SDS011;63946;51.986;5.930;2024-03-07T19:42:15;29.45;;;14.57;;
75356;SDS011;63946;51.986;5.930;2024-03-07T19:44:44;28.00;;;13.85;;
75356;SDS011;63946;51.986;5.930;2024-03-07T19:47:12;29.48;;;14.68;;
75356;SDS011;63946;51.986;5.930;2024-03-07T19:49:42;29.95;;;13.98;;
75356;SDS011;63946;51.986;5.930;2024-03-07T19:52:11;29.77;;;15.02;;
75356;SDS011;63946;51.986;5.930;2024-03-07T19:54:42;31.55;;;14.75;;
75356;SDS011;63946;51.986;5.930;2024-03-07T19:59:49;30.00;;;13.93;;
75356;SDS011;63946;51.986;5.930;2024-03-07T20:02:20;31.77;;;14.20;;
75356;SDS011;63946;51.986;5.930;2024-03-07T20:04:49;24.63;;;13.88;;
75356;SDS011;63946;51.986;5.930;2024-03-07T20:07:19;28.20;;;13.45;;
75356;SDS011;63946;51.986;5.930;2024-03-07T20:09:47;27.50;;;14.45;;
75356;SDS011;63946;51.986;5.930;2024-03-07T20:12:22;30.40;;;14.43;;
75356;SDS011;63946;51.986;5.930;2024-03-07T20:14:50;30.05;;;15.35;;
75356;SDS011;63946;51.986;5.930;2024-03-07T20:17:20;29.88;;;14.85;;
75356;SDS011;63946;51.986;5.930;2024-03-07T20:19:49;30.83;;;14.82;;
75356;SDS011;63946;51.986;5.930;2024-03-07T20:22:20;32.65;;;14.57;;
75356;SDS011;63946;51.986;5.930;2024-03-07T20:24:49;33.67;;;15.60;;
75356;SDS011;63946;51.986;5.930;2024-03-07T20:27:19;32.47;;;15.55;;
75356;SDS011;63946;51.986;5.930;2024-03-07T20:29:46;28.35;;;14.65;;
75356;SDS011;63946;51.986;5.930;2024-03-07T20:32:15;27.83;;;14.07;;
75356;SDS011;63946;51.986;5.930;2024-03-07T20:34:44;36.40;;;16.17;;
75356;SDS011;63946;51.986;5.930;2024-03-07T20:37:12;31.00;;;15.07;;
75356;SDS011;63946;51.986;5.930;2024-03-07T20:39:41;33.28;;;16.13;;
75356;SDS011;63946;51.986;5.930;2024-03-07T20:42:13;33.22;;;15.27;;
75356;SDS011;63946;51.986;5.930;2024-03-07T20:44:42;30.73;;;16.30;;
75356;SDS011;63946;51.986;5.930;2024-03-07T20:47:11;31.10;;;15.20;;
75356;SDS011;63946;51.986;5.930;2024-03-07T20:49:49;35.17;;;15.88;;
75356;SDS011;63946;51.986;5.930;2024-03-07T20:52:18;32.47;;;16.60;;
75356;SDS011;63946;51.986;5.930;2024-03-07T20:54:47;36.53;;;15.57;;
75356;SDS011;63946;51.986;5.930;2024-03-07T20:57:15;35.17;;;16.00;;
75356;SDS011;63946;51.986;5.930;2024-03-07T20:59:45;30.73;;;15.82;;
75356;SDS011;63946;51.986;5.930;2024-03-07T21:02:17;32.72;;;18.05;;
75356;SDS011;63946;51.986;5.930;2024-03-07T21:04:52;31.33;;;15.57;;
75356;SDS011;63946;51.986;5.930;2024-03-07T21:09:49;33.83;;;15.35;;
75356;SDS011;63946;51.986;5.930;2024-03-07T21:12:20;30.45;;;14.80;;
75356;SDS011;63946;51.986;5.930;2024-03-07T21:14:50;31.55;;;15.57;;
75356;SDS011;63946;51.986;5.930;2024-03-07T21:17:19;33.55;;;16.67;;
75356;SDS011;63946;51.986;5.930;2024-03-07T21:19:48;30.17;;;14.68;;
75356;SDS011;63946;51.986;5.930;2024-03-07T21:22:17;32.30;;;15.73;;
75356;SDS011;63946;51.986;5.930;2024-03-07T21:24:46;29.25;;;15.57;;
75356;SDS011;63946;51.986;5.930;2024-03-07T21:27:15;31.13;;;15.98;;